sensor_id;sensor_type;location;lat;lon;timestamp;P1;durP1;ratioP1;P2;durP2;ratioP2
18677;SDS011;9469;51.114;13.914;2023-12-28T00:01:21;10.03;;;5.00;;
18677;SDS011;9469;51.114;13.914;2023-12-28T00:06:27;8.60;;;5.00;;
18677;SDS011;9469;51.114;13.914;2023-12-28T00:11:33;11.73;;;6.10;;
18677;SDS011;9469;51.114;13.914;2023-12-28T00:16:40;8.83;;;4.33;;
18677;SDS011;9469;51.114;13.914;2023-12-28T00:21:46;7.63;;;4.60;;
18677;SDS011;9469;51.114;13.914;2023-12-28T00:26:51;8.13;;;4.73;;
18677;SDS011;9469;51.114;13.914;2023-12-28T00:31:59;11.97;;;5.10;;
18677;SDS011;9469;51.114;13.914;2023-12-28T00:37:04;6.77;;;4.77;;
18677;SDS011;9469;51.114;13.914;2023-12-28T00:42:11;7.70;;;4.43;;
18677;SDS011;9469;51.114;13.914;2023-12-28T00:47:19;9.20;;;5.10;;
18677;SDS011;9469;51.114;13.914;2023-12-28T00:52:24;8.13;;;4.33;;
18677;SDS011;9469;51.114;13.914;2023-12-28T00:57:29;10.30;;;4.83;;
18677;SDS011;9469;51.114;13.914;2023-12-28T01:02:37;7.93;;;4.23;;
18677;SDS011;9469;51.114;13.914;2023-12-28T01:07:43;7.73;;;4.70;;
18677;SDS011;9469;51.114;13.914;2023-12-28T01:12:48;7.90;;;4.60;;
18677;SDS011;9469;51.114;13.914;2023-12-28T01:18:00;7.53;;;5.23;;
18677;SDS011;9469;51.114;13.914;2023-12-28T01:23:06;6.10;;;4.67;;
18677;SDS011;9469;51.114;13.914;2023-12-28T01:28:11;8.57;;;4.43;;
18677;SDS011;9469;51.114;13.914;2023-12-28T01:33:21;7.73;;;4.67;;
18677;SDS011;9469;51.114;13.914;2023-12-28T01:38:26;7.90;;;5.37;;
18677;SDS011;9469;51.114;13.914;2023-12-28T01:43:31;9.47;;;5.73;;
18677;SDS011;9469;51.114;13.914;2023-12-28T01:48:39;10.53;;;5.90;;
18677;SDS011;9469;51.114;13.914;2023-12-28T01:53:45;9.30;;;5.77;;
18677;SDS011;9469;51.114;13.914;2023-12-28T01:58:52;10.97;;;5.60;;
18677;SDS011;9469;51.114;13.914;2023-12-28T02:04:03;11.40;;;5.47;;
18677;SDS011;9469;51.114;13.914;2023-12-28T02:09:08;10.07;;;5.77;;
18677;SDS011;9469;51.114;13.914;2023-12-28T02:14:13;8.57;;;5.30;;
18677;SDS011;9469;51.114;13.914;2023-12-28T02:19:23;11.77;;;5.93;;
18677;SDS011;9469;51.114;13.914;2023-12-28T02:30:14;11.93;;;5.93;;
18677;SDS011;9469;51.114;13.914;2023-12-28T02:35:27;12.80;;;6.37;;
18677;SDS011;9469;51.114;13.914;2023-12-28T02:40:40;12.07;;;5.40;;
18677;SDS011;9469;51.114;13.914;2023-12-28T02:45:47;9.13;;;5.30;;
18677;SDS011;9469;51.114;13.914;2023-12-28T02:50:53;9.90;;;5.83;;
18677;SDS011;9469;51.114;13.914;2023-12-28T02:56:04;8.87;;;5.53;;
18677;SDS011;9469;51.114;13.914;2023-12-28T03:01:14;10.37;;;5.30;;
18677;SDS011;9469;51.114;13.914;2023-12-28T03:06:19;10.13;;;5.80;;
18677;SDS011;9469;51.114;13.914;2023-12-28T03:11:27;8.77;;;5.23;;
18677;SDS011;9469;51.114;13.914;2023-12-28T03:16:32;7.93;;;5.60;;
18677;SDS011;9469;51.114;13.914;2023-12-28T03:21:40;8.40;;;5.57;;
18677;SDS011;9469;51.114;13.914;2023-12-28T03:26:50;6.90;;;5.17;;
18677;SDS011;9469;51.114;13.914;2023-12-28T03:31:57;10.33;;;6.00;;
18677;SDS011;9469;51.114;13.914;2023-12-28T03:37:02;11.60;;;5.73;;
18677;SDS011;9469;51.114;13.914;2023-12-28T03:42:12;12.10;;;5.67;;
18677;SDS011;9469;51.114;13.914;2023-12-28T03:47:18;7.97;;;5.57;;
18677;SDS011;9469;51.114;13.914;2023-12-28T03:52:25;9.00;;;5.67;;
18677;SDS011;9469;51.114;13.914;2023-12-28T03:57:34;8.87;;;5.07;;
18677;SDS011;9469;51.114;13.914;2023-12-28T04:02:40;8.47;;;5.70;;
18677;SDS011;9469;51.114;13.914;2023-12-28T04:07:46;9.13;;;4.83;;
18677;SDS011;9469;51.114;13.914;2023-12-28T04:12:53;6.57;;;4.70;;
18677;SDS011;9469;51.114;13.914;2023-12-28T04:17:59;6.33;;;5.17;;
18677;SDS011;9469;51.114;13.914;2023-12-28T04:23:05;10.03;;;5.63;;
18677;SDS011;9469;51.114;13.914;2023-12-28T04:28:14;10.17;;;6.47;;
18677;SDS011;9469;51.114;13.914;2023-12-28T04:33:19;10.17;;;6.10;;
18677;SDS011;9469;51.114;13.914;2023-12-28T04:38:24;10.47;;;6.40;;
18677;SDS011;9469;51.114;13.914;2023-12-28T04:43:32;10.13;;;5.80;;
18677;SDS011;9469;51.114;13.914;2023-12-28T04:48:37;8.47;;;4.87;;
18677;SDS011;9469;51.114;13.914;2023-12-28T04:53:43;6.47;;;5.33;;
18677;SDS011;9469;51.114;13.914;2023-12-28T04:58:53;8.50;;;5.47;;
18677;SDS011;9469;51.114;13.914;2023-12-28T05:03:59;8.80;;;4.90;;
18677;SDS011;9469;51.114;13.914;2023-12-28T05:09:07;7.23;;;4.23;;
18677;SDS011;9469;51.114;13.914;2023-12-28T05:14:20;3.57;;;2.80;;
18677;SDS011;9469;51.114;13.914;2023-12-28T05:19:25;2.10;;;1.53;;
18677;SDS011;9469;51.114;13.914;2023-12-28T05:24:31;2.07;;;1.87;;
18677;SDS011;9469;51.114;13.914;2023-12-28T05:29:38;1.87;;;1.63;;
18677;SDS011;9469;51.114;13.914;2023-12-28T05:34:43;4.30;;;1.83;;
18677;SDS011;9469;51.114;13.914;2023-12-28T05:39:49;2.67;;;1.90;;
18677;SDS011;9469;51.114;13.914;2023-12-28T05:44:58;2.70;;;2.43;;
18677;SDS011;9469;51.114;13.914;2023-12-28T05:50:04;2.08;;;1.63;;
18677;SDS011;9469;51.114;13.914;2023-12-28T05:55:10;3.67;;;1.97;;
18677;SDS011;9469;51.114;13.914;2023-12-28T06:00:18;13.10;;;3.47;;
18677;SDS011;9469;51.114;13.914;2023-12-28T06:05:26;3.17;;;2.87;;
18677;SDS011;9469;51.114;13.914;2023-12-28T06:10:31;2.00;;;1.73;;
18677;SDS011;9469;51.114;13.914;2023-12-28T06:15:39;1.43;;;1.23;;
18677;SDS011;9469;51.114;13.914;2023-12-28T06:20:45;2.37;;;1.57;;
18677;SDS011;9469;51.114;13.914;2023-12-28T06:25:52;1.80;;;1.60;;
18677;SDS011;9469;51.114;13.914;2023-12-28T06:31:00;2.97;;;1.70;;
18677;SDS011;9469;51.114;13.914;2023-12-28T06:36:09;3.10;;;2.00;;
18677;SDS011;9469;51.114;13.914;2023-12-28T06:41:15;3.77;;;1.77;;
18677;SDS011;9469;51.114;13.914;2023-12-28T06:46:23;3.70;;;1.47;;
18677;SDS011;9469;51.114;13.914;2023-12-28T06:51:28;2.83;;;1.17;;
18677;SDS011;9469;51.114;13.914;2023-12-28T06:56:33;3.30;;;1.93;;
18677;SDS011;9469;51.114;13.914;2023-12-28T07:01:42;4.03;;;1.70;;
18677;SDS011;9469;51.114;13.914;2023-12-28T07:06:50;1.83;;;1.60;;
18677;SDS011;9469;51.114;13.914;2023-12-28T07:11:58;2.53;;;1.77;;
18677;SDS011;9469;51.114;13.914;2023-12-28T07:17:06;3.67;;;1.47;;
18677;SDS011;9469;51.114;13.914;2023-12-28T07:22:19;2.20;;;1.80;;
18677;SDS011;9469;51.114;13.914;2023-12-28T07:27:25;3.20;;;2.10;;
18677;SDS011;9469;51.114;13.914;2023-12-28T07:32:34;4.37;;;1.60;;
18677;SDS011;9469;51.114;13.914;2023-12-28T07:37:39;4.73;;;1.90;;
18677;SDS011;9469;51.114;13.914;2023-12-28T07:42:53;2.30;;;1.90;;
18677;SDS011;9469;51.114;13.914;2023-12-28T07:48:01;2.30;;;1.60;;
18677;SDS011;9469;51.114;13.914;2023-12-28T07:53:09;1.70;;;1.60;;
18677;SDS011;9469;51.114;13.914;2023-12-28T07:58:17;2.73;;;1.67;;
18677;SDS011;9469;51.114;13.914;2023-12-28T08:03:28;4.13;;;2.03;;
18677;SDS011;9469;51.114;13.914;2023-12-28T08:08:34;2.47;;;2.07;;
18677;SDS011;9469;51.114;13.914;2023-12-28T08:13:46;3.53;;;1.60;;
18677;SDS011;9469;51.114;13.914;2023-12-28T08:18:57;2.00;;;1.73;;
18677;SDS011;9469;51.114;13.914;2023-12-28T08:24:05;2.73;;;1.80;;
18677;SDS011;9469;51.114;13.914;2023-12-28T08:29:10;2.20;;;1.83;;
18677;SDS011;9469;51.114;13.914;2023-12-28T08:34:19;4.07;;;1.80;;
18677;SDS011;9469;51.114;13.914;2023-12-28T08:39:26;3.00;;;1.70;;
18677;SDS011;9469;51.114;13.914;2023-12-28T08:44:40;3.73;;;1.70;;
18677;SDS011;9469;51.114;13.914;2023-12-28T08:49:51;7.30;;;1.63;;
18677;SDS011;9469;51.114;13.914;2023-12-28T08:55:01;1.77;;;1.40;;
18677;SDS011;9469;51.114;13.914;2023-12-28T09:00:10;4.83;;;1.57;;
18677;SDS011;9469;51.114;13.914;2023-12-28T09:05:30;2.93;;;1.90;;
18677;SDS011;9469;51.114;13.914;2023-12-28T09:10:35;5.90;;;3.23;;
18677;SDS011;9469;51.114;13.914;2023-12-28T09:15:41;1.70;;;1.57;;
18677;SDS011;9469;51.114;13.914;2023-12-28T09:20:49;1.93;;;1.67;;
18677;SDS011;9469;51.114;13.914;2023-12-28T09:25:54;3.73;;;2.27;;
18677;SDS011;9469;51.114;13.914;2023-12-28T09:31:00;2.40;;;1.90;;
18677;SDS011;9469;51.114;13.914;2023-12-28T09:36:11;2.17;;;1.60;;
18677;SDS011;9469;51.114;13.914;2023-12-28T09:41:19;1.53;;;1.43;;
18677;SDS011;9469;51.114;13.914;2023-12-28T09:46:29;4.33;;;1.80;;
18677;SDS011;9469;51.114;13.914;2023-12-28T09:51:37;3.53;;;1.73;;
18677;SDS011;9469;51.114;13.914;2023-12-28T09:56:42;5.40;;;1.70;;
18677;SDS011;9469;51.114;13.914;2023-12-28T10:01:50;2.10;;;1.60;;
18677;SDS011;9469;51.114;13.914;2023-12-28T10:07:00;3.00;;;1.77;;
18677;SDS011;9469;51.114;13.914;2023-12-28T10:12:07;2.87;;;1.47;;
18677;SDS011;9469;51.114;13.914;2023-12-28T10:17:13;2.23;;;1.60;;
18677;SDS011;9469;51.114;13.914;2023-12-28T10:22:24;2.50;;;1.50;;
18677;SDS011;9469;51.114;13.914;2023-12-28T10:27:31;3.50;;;1.50;;
18677;SDS011;9469;51.114;13.914;2023-12-28T10:32:59;1.70;;;1.60;;
18677;SDS011;9469;51.114;13.914;2023-12-28T10:38:08;3.73;;;1.70;;
18677;SDS011;9469;51.114;13.914;2023-12-28T10:43:19;1.70;;;1.60;;
18677;SDS011;9469;51.114;13.914;2023-12-28T10:48:28;2.30;;;1.37;;
18677;SDS011;9469;51.114;13.914;2023-12-28T10:53:42;2.63;;;1.73;;
18677;SDS011;9469;51.114;13.914;2023-12-28T10:58:56;3.20;;;1.43;;
18677;SDS011;9469;51.114;13.914;2023-12-28T11:04:09;2.30;;;1.70;;
18677;SDS011;9469;51.114;13.914;2023-12-28T11:09:23;2.40;;;1.80;;
18677;SDS011;9469;51.114;13.914;2023-12-28T11:14:33;3.77;;;1.80;;
18677;SDS011;9469;51.114;13.914;2023-12-28T11:19:39;3.73;;;1.70;;
18677;SDS011;9469;51.114;13.914;2023-12-28T11:24:48;3.90;;;1.73;;
18677;SDS011;9469;51.114;13.914;2023-12-28T11:29:56;2.47;;;1.80;;
18677;SDS011;9469;51.114;13.914;2023-12-28T11:35:06;1.97;;;1.70;;
18677;SDS011;9469;51.114;13.914;2023-12-28T11:45:54;3.40;;;1.60;;
18677;SDS011;9469;51.114;13.914;2023-12-28T11:51:00;2.07;;;1.50;;
18677;SDS011;9469;51.114;13.914;2023-12-28T11:56:18;2.13;;;1.90;;
18677;SDS011;9469;51.114;13.914;2023-12-28T12:01:23;3.43;;;2.10;;
18677;SDS011;9469;51.114;13.914;2023-12-28T12:06:31;4.23;;;2.90;;
18677;SDS011;9469;51.114;13.914;2023-12-28T12:11:44;2.50;;;2.20;;
18677;SDS011;9469;51.114;13.914;2023-12-28T12:16:49;1.80;;;1.50;;
18677;SDS011;9469;51.114;13.914;2023-12-28T12:21:58;2.43;;;1.87;;
18677;SDS011;9469;51.114;13.914;2023-12-28T12:27:06;3.23;;;1.93;;
18677;SDS011;9469;51.114;13.914;2023-12-28T12:32:14;3.30;;;2.20;;
18677;SDS011;9469;51.114;13.914;2023-12-28T12:37:27;2.63;;;1.83;;
18677;SDS011;9469;51.114;13.914;2023-12-28T12:43:02;4.37;;;1.90;;
18677;SDS011;9469;51.114;13.914;2023-12-28T12:48:13;2.80;;;2.33;;
18677;SDS011;9469;51.114;13.914;2023-12-28T12:53:19;2.37;;;1.33;;
18677;SDS011;9469;51.114;13.914;2023-12-28T12:58:27;2.93;;;1.50;;
18677;SDS011;9469;51.114;13.914;2023-12-28T13:03:38;2.03;;;1.40;;
18677;SDS011;9469;51.114;13.914;2023-12-28T13:08:46;3.17;;;1.50;;
18677;SDS011;9469;51.114;13.914;2023-12-28T13:13:56;1.93;;;1.30;;
18677;SDS011;9469;51.114;13.914;2023-12-28T13:19:01;2.30;;;1.43;;
18677;SDS011;9469;51.114;13.914;2023-12-28T13:24:07;2.30;;;1.60;;
18677;SDS011;9469;51.114;13.914;2023-12-28T13:29:18;2.73;;;1.70;;
18677;SDS011;9469;51.114;13.914;2023-12-28T13:34:24;2.30;;;1.50;;
18677;SDS011;9469;51.114;13.914;2023-12-28T13:39:34;1.90;;;1.80;;
18677;SDS011;9469;51.114;13.914;2023-12-28T13:44:43;4.03;;;2.30;;
18677;SDS011;9469;51.114;13.914;2023-12-28T13:49:48;2.10;;;1.50;;
18677;SDS011;9469;51.114;13.914;2023-12-28T13:54:54;1.50;;;1.30;;
18677;SDS011;9469;51.114;13.914;2023-12-28T14:00:03;3.47;;;1.73;;
18677;SDS011;9469;51.114;13.914;2023-12-28T14:05:15;2.00;;;1.30;;
18677;SDS011;9469;51.114;13.914;2023-12-28T14:10:21;1.70;;;1.43;;
18677;SDS011;9469;51.114;13.914;2023-12-28T14:15:29;1.80;;;1.30;;
18677;SDS011;9469;51.114;13.914;2023-12-28T14:20:34;1.30;;;1.20;;
18677;SDS011;9469;51.114;13.914;2023-12-28T14:25:43;1.53;;;1.40;;
18677;SDS011;9469;51.114;13.914;2023-12-28T14:30:58;2.93;;;1.80;;
18677;SDS011;9469;51.114;13.914;2023-12-28T14:36:05;1.07;;;1.00;;
18677;SDS011;9469;51.114;13.914;2023-12-28T14:41:16;2.23;;;1.87;;
18677;SDS011;9469;51.114;13.914;2023-12-28T14:46:24;3.77;;;2.57;;
18677;SDS011;9469;51.114;13.914;2023-12-28T14:51:31;3.30;;;3.00;;
18677;SDS011;9469;51.114;13.914;2023-12-28T14:56:36;3.47;;;2.80;;
18677;SDS011;9469;51.114;13.914;2023-12-28T15:01:57;3.43;;;2.10;;
18677;SDS011;9469;51.114;13.914;2023-12-28T15:07:05;1.77;;;1.67;;
18677;SDS011;9469;51.114;13.914;2023-12-28T15:12:10;3.63;;;1.90;;
18677;SDS011;9469;51.114;13.914;2023-12-28T15:17:19;2.87;;;1.90;;
18677;SDS011;9469;51.114;13.914;2023-12-28T15:22:26;2.50;;;2.00;;
18677;SDS011;9469;51.114;13.914;2023-12-28T15:27:31;2.73;;;1.57;;
18677;SDS011;9469;51.114;13.914;2023-12-28T15:32:42;4.10;;;1.83;;
18677;SDS011;9469;51.114;13.914;2023-12-28T15:37:48;2.63;;;1.47;;
18677;SDS011;9469;51.114;13.914;2023-12-28T15:42:54;2.93;;;2.10;;
18677;SDS011;9469;51.114;13.914;2023-12-28T15:48:02;2.70;;;1.87;;
18677;SDS011;9469;51.114;13.914;2023-12-28T15:53:08;2.93;;;1.80;;
18677;SDS011;9469;51.114;13.914;2023-12-28T15:58:13;2.00;;;1.70;;
18677;SDS011;9469;51.114;13.914;2023-12-28T16:08:33;6.43;;;1.80;;
18677;SDS011;9469;51.114;13.914;2023-12-28T16:13:39;2.23;;;1.67;;
18677;SDS011;9469;51.114;13.914;2023-12-28T16:18:48;4.60;;;1.90;;
18677;SDS011;9469;51.114;13.914;2023-12-28T16:23:54;2.27;;;1.90;;
18677;SDS011;9469;51.114;13.914;2023-12-28T16:29:00;4.07;;;2.17;;
18677;SDS011;9469;51.114;13.914;2023-12-28T16:34:08;2.87;;;2.23;;
18677;SDS011;9469;51.114;13.914;2023-12-28T16:39:18;2.77;;;2.00;;
18677;SDS011;9469;51.114;13.914;2023-12-28T16:44:30;2.33;;;2.10;;
18677;SDS011;9469;51.114;13.914;2023-12-28T16:49:38;8.23;;;6.17;;
18677;SDS011;9469;51.114;13.914;2023-12-28T16:54:53;8.17;;;6.33;;
18677;SDS011;9469;51.114;13.914;2023-12-28T16:59:58;3.00;;;2.50;;
18677;SDS011;9469;51.114;13.914;2023-12-28T17:05:16;5.03;;;2.30;;
18677;SDS011;9469;51.114;13.914;2023-12-28T17:10:24;2.07;;;1.87;;
18677;SDS011;9469;51.114;13.914;2023-12-28T17:15:31;2.17;;;1.80;;
18677;SDS011;9469;51.114;13.914;2023-12-28T17:20:42;2.27;;;1.80;;
18677;SDS011;9469;51.114;13.914;2023-12-28T17:25:48;2.70;;;1.97;;
18677;SDS011;9469;51.114;13.914;2023-12-28T17:31:00;2.30;;;1.90;;
18677;SDS011;9469;51.114;13.914;2023-12-28T17:36:11;2.80;;;2.13;;
18677;SDS011;9469;51.114;13.914;2023-12-28T17:41:18;3.00;;;2.10;;
18677;SDS011;9469;51.114;13.914;2023-12-28T17:46:31;3.30;;;2.50;;
18677;SDS011;9469;51.114;13.914;2023-12-28T17:51:49;2.40;;;2.20;;
18677;SDS011;9469;51.114;13.914;2023-12-28T17:56:57;3.50;;;2.20;;
18677;SDS011;9469;51.114;13.914;2023-12-28T18:02:04;2.80;;;2.13;;
18677;SDS011;9469;51.114;13.914;2023-12-28T18:07:15;2.60;;;2.27;;
18677;SDS011;9469;51.114;13.914;2023-12-28T18:12:21;2.50;;;2.07;;
18677;SDS011;9469;51.114;13.914;2023-12-28T18:17:26;2.70;;;2.50;;
18677;SDS011;9469;51.114;13.914;2023-12-28T18:22:34;2.03;;;1.90;;
18677;SDS011;9469;51.114;13.914;2023-12-28T18:27:39;2.90;;;2.17;;
18677;SDS011;9469;51.114;13.914;2023-12-28T18:32:45;3.03;;;2.37;;
18677;SDS011;9469;51.114;13.914;2023-12-28T18:37:54;3.93;;;2.23;;
18677;SDS011;9469;51.114;13.914;2023-12-28T18:43:00;3.03;;;2.03;;
18677;SDS011;9469;51.114;13.914;2023-12-28T18:48:06;3.17;;;2.60;;
18677;SDS011;9469;51.114;13.914;2023-12-28T18:53:18;3.00;;;2.20;;
18677;SDS011;9469;51.114;13.914;2023-12-28T18:58:25;4.07;;;2.17;;
18677;SDS011;9469;51.114;13.914;2023-12-28T19:03:31;2.70;;;2.40;;
18677;SDS011;9469;51.114;13.914;2023-12-28T19:08:51;5.23;;;2.93;;
18677;SDS011;9469;51.114;13.914;2023-12-28T19:13:57;3.70;;;2.73;;
18677;SDS011;9469;51.114;13.914;2023-12-28T19:19:03;6.57;;;2.50;;
18677;SDS011;9469;51.114;13.914;2023-12-28T19:24:13;5.80;;;2.70;;
18677;SDS011;9469;51.114;13.914;2023-12-28T19:29:18;3.80;;;3.03;;
18677;SDS011;9469;51.114;13.914;2023-12-28T19:34:24;3.63;;;2.73;;
18677;SDS011;9469;51.114;13.914;2023-12-28T19:39:32;5.23;;;2.80;;
18677;SDS011;9469;51.114;13.914;2023-12-28T19:44:39;3.07;;;2.60;;
18677;SDS011;9469;51.114;13.914;2023-12-28T19:49:44;4.60;;;2.77;;
18677;SDS011;9469;51.114;13.914;2023-12-28T19:54:52;5.23;;;2.80;;
18677;SDS011;9469;51.114;13.914;2023-12-28T20:00:00;4.40;;;2.83;;
18677;SDS011;9469;51.114;13.914;2023-12-28T20:05:08;3.73;;;2.10;;
18677;SDS011;9469;51.114;13.914;2023-12-28T20:10:18;5.03;;;2.80;;
18677;SDS011;9469;51.114;13.914;2023-12-28T20:15:23;4.37;;;2.70;;
18677;SDS011;9469;51.114;13.914;2023-12-28T20:20:30;5.50;;;2.80;;
18677;SDS011;9469;51.114;13.914;2023-12-28T20:25:39;2.33;;;1.80;;
18677;SDS011;9469;51.114;13.914;2023-12-28T20:30:44;3.93;;;2.43;;
18677;SDS011;9469;51.114;13.914;2023-12-28T20:35:56;5.27;;;2.17;;
18677;SDS011;9469;51.114;13.914;2023-12-28T20:41:04;3.80;;;2.03;;
18677;SDS011;9469;51.114;13.914;2023-12-28T20:46:11;2.77;;;2.10;;
18677;SDS011;9469;51.114;13.914;2023-12-28T20:51:19;2.40;;;2.10;;
18677;SDS011;9469;51.114;13.914;2023-12-28T20:56:27;3.27;;;2.23;;
18677;SDS011;9469;51.114;13.914;2023-12-28T21:01:33;3.33;;;2.60;;
18677;SDS011;9469;51.114;13.914;2023-12-28T21:06:39;3.87;;;2.13;;
18677;SDS011;9469;51.114;13.914;2023-12-28T21:11:48;3.13;;;2.07;;
18677;SDS011;9469;51.114;13.914;2023-12-28T21:16:53;1.90;;;1.80;;
18677;SDS011;9469;51.114;13.914;2023-12-28T21:22:01;3.33;;;2.10;;
18677;SDS011;9469;51.114;13.914;2023-12-28T21:27:08;1.80;;;1.70;;
18677;SDS011;9469;51.114;13.914;2023-12-28T21:32:14;1.97;;;1.60;;
18677;SDS011;9469;51.114;13.914;2023-12-28T21:37:22;3.23;;;1.57;;
18677;SDS011;9469;51.114;13.914;2023-12-28T21:42:32;1.67;;;1.50;;
18677;SDS011;9469;51.114;13.914;2023-12-28T21:47:41;2.27;;;1.97;;
18677;SDS011;9469;51.114;13.914;2023-12-28T21:52:47;4.77;;;3.17;;
18677;SDS011;9469;51.114;13.914;2023-12-28T21:57:56;3.40;;;2.87;;
18677;SDS011;9469;51.114;13.914;2023-12-28T22:03:02;4.37;;;2.67;;
18677;SDS011;9469;51.114;13.914;2023-12-28T22:08:07;2.00;;;1.47;;
18677;SDS011;9469;51.114;13.914;2023-12-28T22:13:16;1.53;;;1.43;;
18677;SDS011;9469;51.114;13.914;2023-12-28T22:18:22;1.77;;;1.50;;
18677;SDS011;9469;51.114;13.914;2023-12-28T22:23:29;2.13;;;1.93;;
18677;SDS011;9469;51.114;13.914;2023-12-28T22:28:38;1.90;;;1.80;;
18677;SDS011;9469;51.114;13.914;2023-12-28T22:33:43;2.20;;;2.00;;
18677;SDS011;9469;51.114;13.914;2023-12-28T22:38:49;3.53;;;2.33;;
18677;SDS011;9469;51.114;13.914;2023-12-28T22:43:57;1.63;;;1.53;;
18677;SDS011;9469;51.114;13.914;2023-12-28T22:49:04;2.03;;;1.93;;
18677;SDS011;9469;51.114;13.914;2023-12-28T22:54:09;10.47;;;6.20;;
18677;SDS011;9469;51.114;13.914;2023-12-28T22:59:18;3.73;;;2.90;;
18677;SDS011;9469;51.114;13.914;2023-12-28T23:04:23;1.93;;;1.57;;
18677;SDS011;9469;51.114;13.914;2023-12-28T23:09:31;2.03;;;1.60;;
18677;SDS011;9469;51.114;13.914;2023-12-28T23:14:39;1.90;;;1.70;;
18677;SDS011;9469;51.114;13.914;2023-12-28T23:19:45;2.23;;;1.93;;
18677;SDS011;9469;51.114;13.914;2023-12-28T23:24:50;1.87;;;1.60;;
18677;SDS011;9469;51.114;13.914;2023-12-28T23:29:58;2.40;;;1.93;;
18677;SDS011;9469;51.114;13.914;2023-12-28T23:35:04;2.13;;;1.93;;
18677;SDS011;9469;51.114;13.914;2023-12-28T23:40:12;2.03;;;1.70;;
18677;SDS011;9469;51.114;13.914;2023-12-28T23:45:20;1.50;;;1.40;;
18677;SDS011;9469;51.114;13.914;2023-12-28T23:50:25;2.00;;;1.60;;
18677;SDS011;9469;51.114;13.914;2023-12-28T23:55:30;1.97;;;1.43;;
